Hilarium — WCZ4818 — position and weather

sailwx.info

Track history (hours):
 
Tides and Currents Weather Stations Pressure Air Temp Water Temp Dewpoint Dewpoint Depression Visibility Wind Speed Wind Dir Waves Ship Positions

Hilarium

Owner: SABRINA FISHERIES INC, NATICK, MA. More information available from US FCC via Universal Licensing System and Coast Guard Vessel Documentation Center.

Last reported at 2017-Oct-19 16:50 UTC. Time now 2017-Oct-19 22:12 UTC.
Position N 34°31' W 076°54'.

Length 42 m; draft 2 m.

Type: Pleasure craft. MMSI: 366771490.

Date/timePositionNaut miles runAvg speedWind from/ knotsBaromVisibWave heightAir tempDewpointWater temp
2017-Oct-19 16:50N 34°31' W 076°54'413.7
2017-Oct-19 16:31N 34°34' W 076°50'713.8
2017-Oct-19 16:01N 34°38' W 076°43'6 0.1
2017-Oct-17 22:51N 34°43' W 076°40'0 0.0
2017-Oct-17 22:30N 34°43' W 076°40'0 0.0
2017-Oct-17 22:00N 34°43' W 076°40'0 0.0
2017-Oct-17 21:30N 34°43' W 076°40'0 0.0
2017-Oct-17 21:00N 34°43' W 076°40'0 0.0
2017-Oct-17 20:30N 34°43' W 076°40'1 1.9
2017-Oct-17 20:01N 34°42' W 076°41'3 6.4
2017-Oct-17 19:31N 34°45' W 076°40'4 8.0
2017-Oct-17 19:00N 34°49' W 076°41'5 9.2
2017-Oct-17 18:30N 34°54' W 076°41'4 8.7
2017-Oct-17 18:01N 34°58' W 076°41'611.6
2017-Oct-17 17:29N 35°03' W 076°37'85 2.1
2017-Oct-16 02:06N 36°21' W 075°57'0 0.0
2017-Oct-16 01:57N 36°21' W 075°57'0 0.0
2017-Oct-16 01:27N 36°21' W 075°57'21 4.1
2017-Oct-15 20:17N 36°42' W 076°04'18 4.2
2017-Oct-15 15:57N 36°59' W 076°09'612.6
2017-Oct-15 15:30N 36°58' W 076°02'4513.0
2017-Oct-15 12:02N 37°33' W 075°26'213.8
2017-Oct-15 11:54N 37°35' W 075°25'513.7
2017-Oct-15 11:30N 37°39' W 075°21'813.7
2017-Oct-15 10:57N 37°45' W 075°16'6113.5
2017-Oct-15 06:25N 38°37' W 074°35'2014.1
2017-Oct-15 05:01N 38°54' W 074°21'014.0
2017-Oct-15 05:00N 38°54' W 074°21'914.1
2017-Oct-15 04:23N 39°02' W 074°15'614.1
2017-Oct-15 03:59N 39°06' W 074°12'814.1
2017-Oct-15 03:28N 39°13' W 074°07'714.1
2017-Oct-15 02:59N 39°19' W 074°03'714.2
2017-Oct-15 02:30N 39°25' W 073°59'714.2
2017-Oct-15 02:00N 39°31' W 073°54'714.2
2017-Oct-15 01:30N 39°37' W 073°49'714.2
2017-Oct-15 01:00N 39°43' W 073°44'814.3
2017-Oct-15 00:29N 39°49' W 073°38'714.1
2017-Oct-14 23:59N 39°54' W 073°33'714.1
2017-Oct-14 23:30N 39°60' W 073°27'714.1
2017-Oct-14 23:00N 40°05' W 073°21'714.0
2017-Oct-14 22:30N 40°11' W 073°16'714.1
2017-Oct-14 22:00N 40°16' W 073°10'714.1
2017-Oct-14 21:30N 40°22' W 073°05'1613.8
2017-Oct-14 20:21N 40°32' W 072°49'  
Track history (hours):
 
Tides and Currents Weather Stations Pressure Air Temp Water Temp Dewpoint Dewpoint Depression Visibility Wind Speed Wind Dir Waves Ship Positions

Hilarium

Owner: SABRINA FISHERIES INC, NATICK, MA. More information available from US FCC via Universal Licensing System and Coast Guard Vessel Documentation Center.

Last reported at 2017-Oct-19 16:50 UTC. Time now 2017-Oct-19 22:12 UTC.
Position N 34°31' W 076°54'.

Length 42 m; draft 2 m.

Type: Pleasure craft. MMSI: 366771490.

Date/timePositionNaut miles runAvg speedWind from/ knotsBaromVisibWave heightAir tempDewpointWater temp
2017-Oct-19 16:50N 34°31' W 076°54'413.7
2017-Oct-19 16:31N 34°34' W 076°50'713.8
2017-Oct-19 16:01N 34°38' W 076°43'6 0.1
2017-Oct-17 22:51N 34°43' W 076°40'0 0.0
2017-Oct-17 22:30N 34°43' W 076°40'0 0.0
2017-Oct-17 22:00N 34°43' W 076°40'0 0.0
2017-Oct-17 21:30N 34°43' W 076°40'0 0.0
2017-Oct-17 21:00N 34°43' W 076°40'0 0.0
2017-Oct-17 20:30N 34°43' W 076°40'1 1.9
2017-Oct-17 20:01N 34°42' W 076°41'3 6.4
2017-Oct-17 19:31N 34°45' W 076°40'4 8.0
2017-Oct-17 19:00N 34°49' W 076°41'5 9.2
2017-Oct-17 18:30N 34°54' W 076°41'4 8.7
2017-Oct-17 18:01N 34°58' W 076°41'611.6
2017-Oct-17 17:29N 35°03' W 076°37'85 2.1
2017-Oct-16 02:06N 36°21' W 075°57'0 0.0
2017-Oct-16 01:57N 36°21' W 075°57'0 0.0
2017-Oct-16 01:27N 36°21' W 075°57'21 4.1
2017-Oct-15 20:17N 36°42' W 076°04'18 4.2
2017-Oct-15 15:57N 36°59' W 076°09'612.6
2017-Oct-15 15:30N 36°58' W 076°02'4513.0
2017-Oct-15 12:02N 37°33' W 075°26'213.8
2017-Oct-15 11:54N 37°35' W 075°25'513.7
2017-Oct-15 11:30N 37°39' W 075°21'813.7
2017-Oct-15 10:57N 37°45' W 075°16'6113.5
2017-Oct-15 06:25N 38°37' W 074°35'2014.1
2017-Oct-15 05:01N 38°54' W 074°21'014.0
2017-Oct-15 05:00N 38°54' W 074°21'914.1
2017-Oct-15 04:23N 39°02' W 074°15'614.1
2017-Oct-15 03:59N 39°06' W 074°12'814.1
2017-Oct-15 03:28N 39°13' W 074°07'714.1
2017-Oct-15 02:59N 39°19' W 074°03'714.2
2017-Oct-15 02:30N 39°25' W 073°59'714.2
2017-Oct-15 02:00N 39°31' W 073°54'714.2
2017-Oct-15 01:30N 39°37' W 073°49'714.2
2017-Oct-15 01:00N 39°43' W 073°44'814.3
2017-Oct-15 00:29N 39°49' W 073°38'714.1
2017-Oct-14 23:59N 39°54' W 073°33'714.1
2017-Oct-14 23:30N 39°60' W 073°27'714.1
2017-Oct-14 23:00N 40°05' W 073°21'714.0
2017-Oct-14 22:30N 40°11' W 073°16'714.1
2017-Oct-14 22:00N 40°16' W 073°10'714.1
2017-Oct-14 21:30N 40°22' W 073°05'1613.8
2017-Oct-14 20:21N 40°32' W 072°49'  

Dump ship's entire track history